createdAt,value
2022-09-30T00:01:58.164Z,3.13
2022-09-30T00:04:26.015Z,3.40
2022-09-30T00:06:54.396Z,2.93
2022-09-30T00:09:22.154Z,2.70
2022-09-30T00:11:51.337Z,2.77
2022-09-30T00:14:19.713Z,2.60
2022-09-30T00:16:47.233Z,3.00
2022-09-30T00:19:14.939Z,2.87
2022-09-30T00:21:42.931Z,3.17
2022-09-30T00:24:10.429Z,3.10
2022-09-30T00:26:37.970Z,2.83
2022-09-30T00:29:06.792Z,3.10
2022-09-30T00:31:35.675Z,3.20
2022-09-30T00:34:09.738Z,2.57
2022-09-30T00:36:38.157Z,2.43
2022-09-30T00:39:06.191Z,3.07
2022-09-30T00:41:33.952Z,2.90
2022-09-30T00:44:01.566Z,2.67
2022-09-30T00:46:33.549Z,2.67
2022-09-30T00:49:03.760Z,2.60
2022-09-30T00:51:33.992Z,2.50
2022-09-30T00:54:03.298Z,2.47
2022-09-30T00:56:33.646Z,2.67
2022-09-30T00:59:04.317Z,2.67
2022-09-30T01:01:33.094Z,2.77
2022-09-30T01:04:01.402Z,2.53
2022-09-30T01:06:29.155Z,3.27
2022-09-30T01:08:58.418Z,2.83
2022-09-30T01:11:27.841Z,2.77
2022-09-30T01:14:05.769Z,2.60
2022-09-30T01:16:46.610Z,3.20
2022-09-30T01:19:21.722Z,2.73
2022-09-30T01:22:00.496Z,3.07
2022-09-30T01:24:49.044Z,3.13
2022-09-30T01:27:19.919Z,2.60
2022-09-30T01:30:05.340Z,2.80
2022-09-30T01:32:41.563Z,3.20
2022-09-30T01:35:15.694Z,2.93
2022-09-30T01:37:45.527Z,3.00
2022-09-30T01:40:22.466Z,2.77
2022-09-30T01:42:53.957Z,3.40
2022-09-30T01:45:24.979Z,3.00
2022-09-30T01:47:59.085Z,3.23
2022-09-30T01:50:30.719Z,3.03
2022-09-30T01:53:04.916Z,2.90
2022-09-30T01:55:34.043Z,2.97
2022-09-30T01:58:04.115Z,2.80
2022-09-30T02:00:33.423Z,2.97
2022-09-30T02:03:03.390Z,2.90
2022-09-30T02:05:32.869Z,2.90
2022-09-30T02:08:01.966Z,2.73
2022-09-30T02:10:34.437Z,2.50
2022-09-30T02:13:05.092Z,2.43
2022-09-30T02:15:40.256Z,3.17
2022-09-30T02:18:12.557Z,2.53
2022-09-30T02:20:42.272Z,2.70
2022-09-30T02:23:12.359Z,2.87
2022-09-30T02:25:43.064Z,2.60
2022-09-30T02:28:13.773Z,2.57
2022-09-30T02:30:43.999Z,2.67
2022-09-30T02:33:16.225Z,2.37
2022-09-30T02:35:46.479Z,2.40
2022-09-30T02:38:16.818Z,2.47
2022-09-30T02:40:48.039Z,2.13
2022-09-30T02:43:16.241Z,2.70
2022-09-30T02:45:45.191Z,2.50
2022-09-30T02:48:19.823Z,2.50
2022-09-30T02:50:49.680Z,2.40
2022-09-30T02:53:21.484Z,2.93
2022-09-30T02:55:57.373Z,2.70
2022-09-30T02:58:26.223Z,2.83
2022-09-30T03:00:54.479Z,2.70
2022-09-30T03:03:26.504Z,2.50
2022-09-30T03:05:54.116Z,2.70
2022-09-30T03:08:21.582Z,2.60
2022-09-30T03:10:51.259Z,2.77
2022-09-30T03:13:25.558Z,2.93
2022-09-30T03:16:02.422Z,2.70
2022-09-30T03:18:37.497Z,2.50
2022-09-30T03:21:09.638Z,3.00
2022-09-30T03:23:52.611Z,3.10
2022-09-30T03:26:28.147Z,3.00
2022-09-30T03:29:02.967Z,2.80
2022-09-30T03:31:34.159Z,3.20
2022-09-30T03:34:11.542Z,3.47
2022-09-30T03:36:40.739Z,3.30
2022-09-30T03:39:17.776Z,3.27
2022-09-30T03:41:48.681Z,2.80
2022-09-30T03:44:18.154Z,2.77
2022-09-30T03:46:48.428Z,2.87
2022-09-30T03:49:20.936Z,3.10
2022-09-30T03:51:50.966Z,3.30
2022-09-30T03:54:18.773Z,3.30
2022-09-30T03:56:46.283Z,3.10
2022-09-30T03:59:24.116Z,3.50
2022-09-30T04:01:51.740Z,3.23
2022-09-30T04:04:20.805Z,3.20
2022-09-30T04:06:48.265Z,3.20
2022-09-30T04:09:15.759Z,3.03
2022-09-30T04:11:45.646Z,3.10
2022-09-30T04:14:13.078Z,3.37
2022-09-30T04:16:40.646Z,3.80
2022-09-30T04:19:08.195Z,3.90
2022-09-30T04:21:37.185Z,4.23
2022-09-30T04:24:04.780Z,3.80
2022-09-30T04:26:32.393Z,3.77
2022-09-30T04:29:00.169Z,3.53
2022-09-30T04:31:27.710Z,3.90
2022-09-30T04:33:59.119Z,3.73
2022-09-30T04:36:26.535Z,3.23
2022-09-30T04:38:55.418Z,3.23
2022-09-30T04:41:23.051Z,3.07
2022-09-30T04:43:50.483Z,3.70
2022-09-30T04:46:18.593Z,3.47
2022-09-30T04:48:46.615Z,3.43
2022-09-30T04:51:14.061Z,2.90
2022-09-30T04:53:41.782Z,3.33
2022-09-30T04:56:11.036Z,2.93
2022-09-30T04:58:39.587Z,2.80
2022-09-30T05:01:08.341Z,3.00
2022-09-30T05:03:36.100Z,2.77
2022-09-30T05:06:04.233Z,3.50
2022-09-30T05:08:32.281Z,3.03
2022-09-30T05:11:00.797Z,3.00
2022-09-30T05:13:31.748Z,3.60
2022-09-30T05:15:59.617Z,3.83
2022-09-30T05:18:27.325Z,3.97
2022-09-30T05:20:55.553Z,3.33
2022-09-30T05:23:22.974Z,4.23
2022-09-30T05:25:50.635Z,4.10
2022-09-30T05:28:18.671Z,3.90
2022-09-30T05:30:47.714Z,4.00
2022-09-30T05:33:15.455Z,3.87
2022-09-30T05:35:43.478Z,3.77
2022-09-30T05:38:12.097Z,4.43
2022-09-30T05:40:40.209Z,4.60
2022-09-30T05:43:08.176Z,4.43
2022-09-30T05:45:35.903Z,4.80
2022-09-30T05:48:04.979Z,4.13
2022-09-30T05:50:32.534Z,3.90
2022-09-30T05:52:59.972Z,3.90
2022-09-30T05:55:27.437Z,3.67
2022-09-30T05:57:54.865Z,3.57
2022-09-30T06:00:22.279Z,3.23
2022-09-30T06:02:52.077Z,3.73
2022-09-30T06:05:22.023Z,3.80
2022-09-30T06:07:50.743Z,3.70
2022-09-30T06:10:18.435Z,3.57
2022-09-30T06:12:45.957Z,3.83
2022-09-30T06:15:13.457Z,4.47
2022-09-30T06:17:42.467Z,4.30
2022-09-30T06:20:10.510Z,4.70
2022-09-30T06:22:39.326Z,4.93
2022-09-30T06:25:07.104Z,4.67
2022-09-30T06:27:34.811Z,4.40
2022-09-30T06:30:03.117Z,4.60
2022-09-30T06:32:30.578Z,4.13
2022-09-30T06:34:58.007Z,4.10
2022-09-30T06:37:25.509Z,4.23
2022-09-30T06:39:54.630Z,4.30
2022-09-30T06:42:24.983Z,4.20
2022-09-30T06:44:53.621Z,4.80
2022-09-30T06:47:25.692Z,4.67
2022-09-30T06:49:58.400Z,4.23
2022-09-30T06:52:26.383Z,4.00
2022-09-30T06:54:57.307Z,4.23
2022-09-30T06:57:26.598Z,4.73
2022-09-30T06:59:54.396Z,4.40
2022-09-30T07:02:21.959Z,4.27
2022-09-30T07:04:50.261Z,5.10
2022-09-30T07:07:21.910Z,5.60
2022-09-30T07:09:49.807Z,6.00
2022-09-30T07:12:18.629Z,6.00
2022-09-30T07:14:46.109Z,7.53
2022-09-30T07:17:13.595Z,7.33
2022-09-30T07:19:40.992Z,6.30
2022-09-30T07:22:25.868Z,8.17
2022-09-30T07:24:53.297Z,6.43
2022-09-30T07:27:22.255Z,6.27
2022-09-30T07:30:08.445Z,5.93
2022-09-30T07:32:37.553Z,15.17
2022-09-30T07:35:05.417Z,6.70
2022-09-30T07:37:36.193Z,6.97
2022-09-30T07:40:05.093Z,5.80
2022-09-30T07:42:34.337Z,7.10
2022-09-30T07:45:02.073Z,6.03
2022-09-30T07:47:29.840Z,6.67
2022-09-30T07:49:57.465Z,16.10
2022-09-30T07:52:24.869Z,33.07
2022-09-30T07:54:52.311Z,37.60
2022-09-30T07:57:21.503Z,37.27
2022-09-30T07:59:50.252Z,12.47
2022-09-30T08:02:18.992Z,7.17
2022-09-30T08:04:46.639Z,7.10
2022-09-30T08:07:15.285Z,5.30
2022-09-30T08:09:43.073Z,2.93
2022-09-30T08:12:10.727Z,3.00
2022-09-30T08:14:38.277Z,2.50
2022-09-30T08:17:07.262Z,2.30
2022-09-30T08:19:35.257Z,2.50
2022-09-30T08:24:35.723Z,2.70
2022-09-30T08:27:03.341Z,2.90
2022-09-30T08:32:19.873Z,2.00
2022-09-30T08:34:47.311Z,2.40
2022-09-30T08:37:14.716Z,2.50
2022-09-30T08:39:43.374Z,2.43
2022-09-30T08:42:45.950Z,2.17
2022-09-30T08:45:20.577Z,2.07
2022-09-30T08:47:52.250Z,2.60
2022-09-30T08:50:23.770Z,2.17
2022-09-30T08:52:53.276Z,2.37
2022-09-30T08:55:22.636Z,2.40
2022-09-30T08:57:50.442Z,2.03
2022-09-30T09:00:19.134Z,1.80
2022-09-30T09:02:49.244Z,1.83
2022-09-30T09:05:25.030Z,1.73
2022-09-30T09:07:56.315Z,1.93
2022-09-30T09:10:31.626Z,2.47
2022-09-30T09:13:02.184Z,1.83
2022-09-30T09:15:40.240Z,2.17
2022-09-30T09:18:29.956Z,2.00
2022-09-30T09:20:59.824Z,1.70
2022-09-30T09:23:28.857Z,1.80
2022-09-30T09:25:56.299Z,1.90
2022-09-30T09:28:26.316Z,1.60
2022-09-30T09:30:57.067Z,1.60
2022-09-30T09:33:27.701Z,1.80
2022-09-30T09:35:58.866Z,1.57
2022-09-30T09:38:35.790Z,1.17
2022-09-30T09:41:08.322Z,1.60
2022-09-30T09:43:43.843Z,1.27
2022-09-30T09:46:15.091Z,1.83
2022-09-30T09:48:42.654Z,1.50
2022-09-30T09:51:14.917Z,1.50
2022-09-30T09:53:45.356Z,1.63
2022-09-30T09:56:18.607Z,1.47
2022-09-30T09:59:05.745Z,1.77
2022-09-30T10:01:33.569Z,1.70
2022-09-30T10:04:09.671Z,1.23
2022-09-30T10:06:43.809Z,1.70
2022-09-30T10:09:22.598Z,1.60
2022-09-30T10:11:50.395Z,1.07
2022-09-30T10:14:19.019Z,1.13
2022-09-30T10:16:47.145Z,1.20
2022-09-30T10:19:22.539Z,1.30
2022-09-30T10:21:51.912Z,1.23
2022-09-30T10:24:28.408Z,1.30
2022-09-30T10:26:56.282Z,1.40
2022-09-30T10:29:27.735Z,1.47
2022-09-30T10:31:59.041Z,1.40
2022-09-30T10:34:29.275Z,1.40
2022-09-30T10:36:57.226Z,1.40
2022-09-30T10:39:26.798Z,1.20
2022-09-30T10:42:02.364Z,1.20
2022-09-30T10:44:30.191Z,1.30
2022-09-30T10:47:00.158Z,1.43
2022-09-30T10:49:29.067Z,1.10
2022-09-30T10:51:56.960Z,1.20
2022-09-30T10:54:37.287Z,1.53
2022-09-30T10:57:05.077Z,1.53
2022-09-30T10:59:34.838Z,1.70
2022-09-30T11:02:06.738Z,1.50
2022-09-30T11:04:36.316Z,1.30
2022-09-30T11:07:11.359Z,1.40
2022-09-30T11:09:45.550Z,1.30
2022-09-30T11:12:15.524Z,1.30
2022-09-30T11:14:45.539Z,1.93
2022-09-30T11:17:22.956Z,1.50
2022-09-30T11:19:52.322Z,1.50
2022-09-30T11:22:36.404Z,1.50
2022-09-30T11:25:10.920Z,1.60
2022-09-30T11:27:44.833Z,1.80
2022-09-30T11:30:15.673Z,1.60
2022-09-30T11:32:51.810Z,1.63
2022-09-30T11:35:25.241Z,1.40
2022-09-30T11:37:59.623Z,1.67
2022-09-30T11:40:37.935Z,1.80
2022-09-30T11:43:09.699Z,1.67
2022-09-30T11:45:41.380Z,1.70
2022-09-30T11:48:32.814Z,1.57
2022-09-30T11:51:04.317Z,1.40
2022-09-30T11:53:36.032Z,38.77
2022-09-30T11:56:19.331Z,3.67
2022-09-30T11:58:49.796Z,1.70
2022-09-30T12:01:22.195Z,1.60
2022-09-30T12:03:55.923Z,1.70
2022-09-30T12:06:26.969Z,1.90
2022-09-30T12:08:58.024Z,1.50
2022-09-30T12:11:31.193Z,2.00
2022-09-30T12:14:01.741Z,1.53
2022-09-30T12:16:31.412Z,1.70
2022-09-30T12:19:03.733Z,2.00
2022-09-30T12:21:33.940Z,2.03
2022-09-30T12:24:03.645Z,1.60
2022-09-30T12:26:32.659Z,1.63
2022-09-30T12:29:19.290Z,1.50
2022-09-30T12:31:57.142Z,1.70
2022-09-30T12:34:32.438Z,1.90
2022-09-30T12:37:10.673Z,2.40
2022-09-30T12:39:54.334Z,2.37
2022-09-30T12:42:31.354Z,1.90
2022-09-30T12:45:19.928Z,1.70
2022-09-30T12:47:49.160Z,1.70
2022-09-30T12:50:17.725Z,2.00
2022-09-30T12:52:45.348Z,2.20
2022-09-30T12:55:21.013Z,2.00
2022-09-30T12:57:50.491Z,2.33
2022-09-30T13:00:18.685Z,2.27
2022-09-30T13:02:48.558Z,2.00
2022-09-30T13:05:34.784Z,2.77
2022-09-30T13:08:25.410Z,2.00
2022-09-30T13:10:58.232Z,2.03
2022-09-30T13:13:28.645Z,3.57
2022-09-30T13:16:03.096Z,3.20
2022-09-30T13:18:49.707Z,2.50
2022-09-30T13:21:18.868Z,2.17
2022-09-30T13:23:47.019Z,2.57
2022-09-30T13:26:29.573Z,2.40
2022-09-30T13:29:16.435Z,2.30
2022-09-30T13:32:02.656Z,1.97
2022-09-30T13:34:32.660Z,2.07
2022-09-30T13:37:00.839Z,1.97
2022-09-30T13:39:29.866Z,1.90
2022-09-30T13:42:04.819Z,2.17
2022-09-30T13:44:36.845Z,1.90
2022-09-30T13:47:09.535Z,2.20
2022-09-30T13:49:41.355Z,1.90
2022-09-30T13:52:13.373Z,1.70
2022-09-30T13:54:47.709Z,2.10
2022-09-30T13:57:18.861Z,1.93
2022-09-30T13:59:56.677Z,1.60
2022-09-30T14:02:33.510Z,1.73
2022-09-30T14:05:22.636Z,1.87
2022-09-30T14:07:58.283Z,1.83
2022-09-30T14:10:35.505Z,1.53
2022-09-30T14:13:09.849Z,2.10
2022-09-30T14:15:45.165Z,2.23
2022-09-30T14:18:39.857Z,1.77
2022-09-30T14:21:20.278Z,1.90
2022-09-30T14:23:47.841Z,1.50
2022-09-30T14:26:27.335Z,1.80
2022-09-30T14:28:59.863Z,2.03
2022-09-30T14:31:29.819Z,2.00
2022-09-30T14:33:57.732Z,2.20
2022-09-30T14:36:25.282Z,2.10
2022-09-30T14:38:54.731Z,1.80
2022-09-30T14:41:23.207Z,1.97
2022-09-30T14:43:52.784Z,2.03
2022-09-30T14:46:26.666Z,1.80
2022-09-30T14:48:57.311Z,1.43
2022-09-30T14:51:25.724Z,1.57
2022-09-30T14:53:53.892Z,1.90
2022-09-30T14:56:22.832Z,1.70
2022-09-30T14:58:52.232Z,1.73
2022-09-30T15:01:22.212Z,2.10
2022-09-30T15:03:55.388Z,1.90
2022-09-30T15:06:25.256Z,2.40
2022-09-30T15:09:00.622Z,2.30
2022-09-30T15:11:28.421Z,2.33
2022-09-30T15:13:59.196Z,2.27
2022-09-30T15:16:27.259Z,1.80
2022-09-30T15:18:55.037Z,1.90
2022-09-30T15:21:25.344Z,1.80
2022-09-30T15:23:54.201Z,1.70
2022-09-30T15:26:22.679Z,1.70
2022-09-30T15:28:50.225Z,1.60
2022-09-30T15:31:24.086Z,2.07
2022-09-30T15:34:01.769Z,2.30
2022-09-30T15:36:30.984Z,3.63
2022-09-30T15:38:58.773Z,3.00
2022-09-30T15:41:26.337Z,4.50
2022-09-30T15:43:54.345Z,3.07
2022-09-30T15:46:27.288Z,3.00
2022-09-30T15:48:55.445Z,3.17
2022-09-30T15:51:40.977Z,2.80
2022-09-30T15:54:23.824Z,2.57
2022-09-30T15:56:52.728Z,1.70
2022-09-30T15:59:20.365Z,1.20
2022-09-30T16:01:48.712Z,1.03
2022-09-30T16:04:24.533Z,1.30
2022-09-30T16:06:53.142Z,1.20
2022-09-30T16:09:22.133Z,1.30
2022-09-30T16:11:59.071Z,1.63
2022-09-30T16:14:29.528Z,1.50
2022-09-30T16:16:58.265Z,1.83
2022-09-30T16:19:26.315Z,2.60
2022-09-30T16:21:54.784Z,4.93
2022-09-30T16:24:41.014Z,6.30
2022-09-30T16:27:20.524Z,5.03
2022-09-30T16:29:49.312Z,4.30
2022-09-30T16:32:16.757Z,2.90
2022-09-30T16:34:44.304Z,2.00
2022-09-30T16:37:12.495Z,1.90
2022-09-30T16:39:40.020Z,1.50
2022-09-30T16:42:07.452Z,2.03
2022-09-30T16:44:35.474Z,2.17
2022-09-30T16:47:04.447Z,1.90
2022-09-30T16:49:32.118Z,1.23
2022-09-30T16:51:59.526Z,1.20
2022-09-30T16:54:26.981Z,1.60
2022-09-30T16:56:57.615Z,1.20
2022-09-30T16:59:27.810Z,1.70
2022-09-30T17:01:55.632Z,1.70
2022-09-30T17:04:25.270Z,1.90
2022-09-30T17:06:53.448Z,1.50
2022-09-30T17:09:21.077Z,1.57
2022-09-30T17:11:49.816Z,1.60
2022-09-30T17:14:17.616Z,1.63
2022-09-30T17:16:46.516Z,1.77
2022-09-30T17:19:14.292Z,1.80
2022-09-30T17:21:43.048Z,1.60
2022-09-30T17:24:10.491Z,1.60
2022-09-30T17:26:38.979Z,1.73
2022-09-30T17:29:30.989Z,1.60
2022-09-30T17:31:55.502Z,1.60
2022-09-30T17:34:23.719Z,1.70
2022-09-30T17:36:54.322Z,1.70
2022-09-30T17:39:21.886Z,1.73
2022-09-30T17:42:06.992Z,1.87
2022-09-30T17:44:34.567Z,2.30
2022-09-30T17:47:02.099Z,2.30
2022-09-30T17:49:33.940Z,3.90
2022-09-30T17:52:03.233Z,2.80
2022-09-30T17:54:31.593Z,4.30
2022-09-30T17:56:59.204Z,6.17
2022-09-30T17:59:28.264Z,5.97
2022-09-30T18:01:57.235Z,4.07
2022-09-30T18:04:25.915Z,3.37
2022-09-30T18:06:53.753Z,3.03
2022-09-30T18:09:23.171Z,2.67
2022-09-30T18:11:50.638Z,2.90
2022-09-30T18:14:18.077Z,2.77
2022-09-30T18:16:45.703Z,2.90
2022-09-30T18:21:41.948Z,2.23
2022-09-30T18:24:09.388Z,2.50
2022-09-30T18:26:38.153Z,2.30
2022-09-30T18:29:06.137Z,2.60
2022-09-30T18:31:36.815Z,3.07
2022-09-30T18:34:05.756Z,2.87
2022-09-30T18:36:33.564Z,2.20
2022-09-30T18:39:02.000Z,2.40
2022-09-30T18:41:30.509Z,2.30
2022-09-30T18:44:02.348Z,2.10
2022-09-30T18:46:30.169Z,2.00
2022-09-30T18:48:57.748Z,2.10
2022-09-30T18:51:25.929Z,1.93
2022-09-30T18:53:57.438Z,1.93
2022-09-30T18:56:25.471Z,1.83
2022-09-30T18:58:53.076Z,1.90
2022-09-30T19:01:21.972Z,2.10
2022-09-30T19:03:49.548Z,1.97
2022-09-30T19:06:16.984Z,2.13
2022-09-30T19:08:44.440Z,2.30
2022-09-30T19:11:14.668Z,1.90
2022-09-30T19:13:42.957Z,2.20
2022-09-30T19:16:11.544Z,1.90
2022-09-30T19:18:42.267Z,2.20
2022-09-30T19:21:11.648Z,2.27
2022-09-30T19:23:39.568Z,2.47
2022-09-30T19:26:07.536Z,3.33
2022-09-30T19:28:38.134Z,8.60
2022-09-30T19:31:08.992Z,5.63
2022-09-30T19:33:45.818Z,10.83
2022-09-30T19:36:21.019Z,32.87
2022-09-30T19:38:48.585Z,15.63
2022-09-30T19:41:16.746Z,8.87
2022-09-30T19:43:46.475Z,3.70
2022-09-30T19:46:14.062Z,14.33
2022-09-30T19:48:41.868Z,3.67
2022-09-30T19:51:10.802Z,4.00
2022-09-30T19:53:41.937Z,2.60
2022-09-30T19:56:12.558Z,2.30
2022-09-30T19:58:41.028Z,2.70
2022-09-30T20:01:09.251Z,2.50
2022-09-30T20:03:37.309Z,1.90
2022-09-30T20:06:05.899Z,2.30
2022-09-30T20:08:34.009Z,2.10
2022-09-30T20:11:06.752Z,2.40
2022-09-30T20:13:34.521Z,2.00
2022-09-30T20:16:01.518Z,2.07
2022-09-30T20:18:29.085Z,2.70
2022-09-30T20:20:57.237Z,2.20
2022-09-30T20:23:25.043Z,2.30
2022-09-30T20:25:52.969Z,2.33
2022-09-30T20:28:22.713Z,2.10
2022-09-30T20:30:50.197Z,2.10
2022-09-30T20:33:18.864Z,2.10
2022-09-30T20:35:46.540Z,2.30
2022-09-30T20:38:15.252Z,2.20
2022-09-30T20:40:42.960Z,2.23
2022-09-30T20:43:10.756Z,2.13
2022-09-30T20:45:41.337Z,2.33
2022-09-30T20:48:09.557Z,1.70
2022-09-30T20:50:40.127Z,2.30
2022-09-30T20:53:09.212Z,1.90
2022-09-30T20:55:37.857Z,1.80
2022-09-30T20:58:06.122Z,2.20
2022-09-30T21:00:36.380Z,2.10
2022-09-30T21:03:05.299Z,2.20
2022-09-30T21:05:32.722Z,2.03
2022-09-30T21:08:00.468Z,2.03
2022-09-30T21:10:28.418Z,1.97
2022-09-30T21:12:56.131Z,1.97
2022-09-30T21:15:23.901Z,1.80
2022-09-30T21:17:52.685Z,2.10
2022-09-30T21:20:21.457Z,2.37
2022-09-30T21:22:49.030Z,2.40
2022-09-30T21:25:16.792Z,2.47
2022-09-30T21:27:46.136Z,2.50
2022-09-30T21:30:13.761Z,2.30
2022-09-30T21:32:42.806Z,2.63
2022-09-30T21:35:10.522Z,2.30
2022-09-30T21:37:39.280Z,2.30
2022-09-30T21:40:07.149Z,2.30
2022-09-30T21:42:34.620Z,2.20
2022-09-30T21:45:02.067Z,1.90
2022-09-30T21:47:29.616Z,2.20
2022-09-30T21:49:57.397Z,2.40
2022-09-30T21:52:25.621Z,2.10
2022-09-30T21:54:57.033Z,2.40
2022-09-30T21:57:24.554Z,2.30
2022-09-30T21:59:52.558Z,2.30
2022-09-30T22:02:20.139Z,2.30
2022-09-30T22:04:47.615Z,2.40
2022-09-30T22:07:16.110Z,2.30
2022-09-30T22:09:43.777Z,2.20
2022-09-30T22:12:12.563Z,2.40
2022-09-30T22:14:40.009Z,2.40
2022-09-30T22:17:09.112Z,2.43
2022-09-30T22:19:37.731Z,2.20
2022-09-30T22:22:05.177Z,2.30
2022-09-30T22:24:32.667Z,2.33
2022-09-30T22:27:00.099Z,2.40
2022-09-30T22:29:30.258Z,2.47
2022-09-30T22:31:57.708Z,2.90
2022-09-30T22:34:42.523Z,2.50
2022-09-30T22:37:27.545Z,2.47
2022-09-30T22:40:00.037Z,2.57
2022-09-30T22:42:29.142Z,2.77
2022-09-30T22:44:57.928Z,3.10
2022-09-30T22:47:25.360Z,2.70
2022-09-30T22:49:52.828Z,2.37
2022-09-30T22:52:20.425Z,2.60
2022-09-30T22:54:47.866Z,3.10
2022-09-30T22:57:15.308Z,2.63
2022-09-30T22:59:43.656Z,2.73
2022-09-30T23:02:12.461Z,2.67
2022-09-30T23:04:39.918Z,2.67
2022-09-30T23:07:08.132Z,2.43
2022-09-30T23:09:35.573Z,2.60
2022-09-30T23:12:03.004Z,2.57
2022-09-30T23:14:30.436Z,2.90
2022-09-30T23:16:57.974Z,3.10
2022-09-30T23:19:26.833Z,2.80
2022-09-30T23:21:54.268Z,2.63
2022-09-30T23:24:21.692Z,2.70
2022-09-30T23:26:49.767Z,2.93
2022-09-30T23:29:17.460Z,3.00
2022-09-30T23:31:44.932Z,2.70
2022-09-30T23:34:13.111Z,2.87
2022-09-30T23:36:42.232Z,2.73
2022-09-30T23:39:13.333Z,2.83
2022-09-30T23:41:40.879Z,2.30
2022-09-30T23:44:09.596Z,2.70
2022-09-30T23:46:37.077Z,2.40
2022-09-30T23:49:04.502Z,2.47
2022-09-30T23:51:34.297Z,2.50
2022-09-30T23:54:03.365Z,2.33
2022-09-30T23:56:32.043Z,2.47
2022-09-30T23:58:59.870Z,2.23
